KART/ART METAR and TAF weather

Enter ICAO airport designator
Station Type Date Time Source
KART METAR 2022/11/30 08:56 UTC NOAA

KART 300856Z AUTO 15015G29KT 10SM CLR 05/M01 A2982 RMK AO2 PK WND 13029/0854 SLP099 T00501006 56052


Station Type Date Time Source
KART Decoded METAR 2022/11/30 08:56 UTC NOAA

WATERTOWN INTERNATIONAL AIRPORT, NY, United States (KART) 43-59N 076-02W 100M
Nov 30, 2022 - 03:56 AM EST / 2022.11.30 0856 UTC
Wind: from the SSE (150 degrees) at 17 MPH (15 KT) gusting to 33 MPH (29 KT):0
Visibility: 10 mile(s):0
Sky conditions: clear
Temperature: 41.0 F (5.0 C)
Dew Point: 30.9 F (-0.6 C)
Relative Humidity: 67%
Pressure (altimeter): 29.82 in. Hg (1009 hPa)
Pressure tendency: 0.15 inches (5.2 hPa) lower than three hours ago
ob: KART 300856Z AUTO 15015G29KT 10SM CLR 05/M01 A2982 RMK AO2 PK WND 13029/0854 SLP099 T00501006 56052
cycle: 9

Station Type Date Time Source
KART TAF 2022/11/30 09:06 UTC NOAA

TAF
AMD KART 300905Z 3009/0106 15015G30KT P6SM BKN200 WS015/17045KT
FM301300 16020G34KT P6SM -SHRA OVC060 WS015/17055KT
FM301500 17018G28KT 6SM -RA BR OVC040 WS020/18060KT
FM301700 18018G28KT 4SM RA BR OVC015
FM302000 25025G43KT 6SM -SHRA BR OVC015
FM302200 25024G40KT P6SM VCSH BKN040
FM010200 25021G37KT 2SM -SN BLSN OVC025

Example: see airport list